Kezdőlap
METAR-TAF:

METAR-TAF

Repülőterek :

Saglek Bay, Újfundland és Labrador, Kanada

földrajzi szélesség: 58-20N, földrajzi hosszúság: 062-35W, magasság: 483 m

Jelenlegi meteorológiai megfigyelések

A jelentés 40 perccel ezelõtt készült, 09:00 UTC
Délnyugati szél 15 kt
Hőmérséklet 16°C
Páratartalom 55%
Légköri nyomás 1000 hPa
Borult 12000 lábon

METAR: CWZZ 080900Z AUTO 22015KT ////SM OVC120 16/07 A2953

Idő: 06:40 (09:40 UTC)


TAF: hiányzik

Meteorológiai megfigyelések és előrejelzések több, mint 4000 repülőtéren (METAR és TAF jelentéseket).

A térképen piros és sárga pontok jelzik az elérhető meteorológiai állomásokat.

Mozgassa az egeret a pont fölött, hogy megjelenjen az állomás neve.

Azután kattintson az időjárási megfigyelések és előrejelzések megtekintéséhez.

A térkép megváltoztatása: kattintson a fekete keresztel jelölt zöld gombra ráközelítéshez, a vonallal jelölt zöld gombra távolításhoz, vagy a zöld nyilakra a szomszédos térképek eléréséhez.


METAR-TAF: